createdAt,value
2022-11-24T00:02:00.079Z,9.48
2022-11-24T00:07:03.516Z,9.47
2022-11-24T00:12:07.063Z,9.48
2022-11-24T00:17:11.871Z,9.46
2022-11-24T00:22:15.336Z,9.56
2022-11-24T00:27:18.730Z,9.59
2022-11-24T00:32:23.523Z,9.66
2022-11-24T00:37:26.957Z,9.74
2022-11-24T00:42:30.303Z,9.81
2022-11-24T00:47:35.090Z,9.89
2022-11-24T00:52:38.479Z,9.86
2022-11-24T00:57:41.869Z,9.86
2022-11-24T01:02:46.768Z,9.85
2022-11-24T01:07:50.213Z,9.91
2022-11-24T01:12:53.707Z,9.98
2022-11-24T01:17:58.632Z,9.96
2022-11-24T01:23:01.996Z,9.97
2022-11-24T01:28:05.685Z,10.02
2022-11-24T01:33:10.473Z,10.08
2022-11-24T01:38:13.855Z,10.13
2022-11-24T01:43:18.846Z,10.10
2022-11-24T01:48:27.949Z,10.19
2022-11-24T01:53:32.167Z,10.21
2022-11-24T01:58:37.701Z,10.28
2022-11-24T02:03:45.112Z,10.26
2022-11-24T02:08:53.166Z,10.23
2022-11-24T02:13:57.654Z,10.24
2022-11-24T02:19:02.939Z,10.32
2022-11-24T02:24:14.574Z,10.35
2022-11-24T02:29:20.692Z,10.38
2022-11-24T02:34:24.094Z,10.47
2022-11-24T02:39:27.597Z,10.42
2022-11-24T02:44:37.940Z,10.34
2022-11-24T02:49:41.660Z,10.39
2022-11-24T02:54:45.075Z,10.40
2022-11-24T02:59:49.908Z,10.45
2022-11-24T03:04:53.319Z,10.49
2022-11-24T03:09:56.684Z,10.51
2022-11-24T03:15:02.729Z,10.54
2022-11-24T03:20:07.657Z,10.57
2022-11-24T03:25:11.392Z,10.53
2022-11-24T03:30:17.379Z,10.50
2022-11-24T03:35:21.291Z,10.43
2022-11-24T03:40:24.692Z,10.52
2022-11-24T03:45:45.530Z,10.54
2022-11-24T03:50:54.401Z,10.53
2022-11-24T03:55:57.899Z,10.58
2022-11-24T04:01:02.946Z,10.59
2022-11-24T04:06:06.529Z,10.59
2022-11-24T04:11:29.908Z,10.59
2022-11-24T04:16:34.745Z,10.60
2022-11-24T04:21:38.248Z,10.64
2022-11-24T04:26:41.803Z,10.62
2022-11-24T04:31:46.599Z,10.57
2022-11-24T04:36:50.079Z,10.42
2022-11-24T04:41:53.508Z,10.43
2022-11-24T04:46:58.556Z,10.31
2022-11-24T04:52:01.988Z,10.28
2022-11-24T04:57:05.690Z,10.24
2022-11-24T05:02:11.185Z,10.23
2022-11-24T05:07:18.822Z,10.24
2022-11-24T05:12:22.660Z,10.33
2022-11-24T05:17:30.148Z,10.30
2022-11-24T05:22:33.850Z,10.40
2022-11-24T05:27:37.763Z,10.41
2022-11-24T05:32:42.770Z,10.43
2022-11-24T05:37:47.647Z,10.45
2022-11-24T05:42:51.068Z,10.45
2022-11-24T05:47:55.893Z,10.42
2022-11-24T05:53:04.210Z,10.38
2022-11-24T05:58:09.966Z,10.43
2022-11-24T06:03:14.812Z,10.49
2022-11-24T06:08:18.351Z,10.48
2022-11-24T06:13:21.850Z,10.38
2022-11-24T06:18:26.858Z,10.39
2022-11-24T06:23:30.299Z,10.46
2022-11-24T06:28:33.726Z,10.51
2022-11-24T06:33:39.716Z,10.53
2022-11-24T06:38:43.212Z,10.50
2022-11-24T06:43:47.690Z,10.56
2022-11-24T06:48:54.101Z,10.56
2022-11-24T06:53:57.547Z,10.60
2022-11-24T06:59:01.583Z,10.67
2022-11-24T07:04:06.803Z,10.69
2022-11-24T07:09:12.032Z,10.79
2022-11-24T07:14:15.543Z,10.84
2022-11-24T07:19:24.826Z,10.92
2022-11-24T07:24:28.617Z,10.97
2022-11-24T07:29:32.036Z,10.99
2022-11-24T07:34:37.135Z,11.03
2022-11-24T07:39:40.647Z,10.90
2022-11-24T07:44:44.055Z,10.92
2022-11-24T07:49:48.885Z,10.93
2022-11-24T07:54:52.363Z,11.00
2022-11-24T07:59:55.764Z,10.99
2022-11-24T08:05:00.603Z,11.08
2022-11-24T08:10:03.994Z,11.07
2022-11-24T08:15:11.115Z,11.09
2022-11-24T08:20:16.400Z,11.08
2022-11-24T08:25:20.086Z,11.13
2022-11-24T08:30:23.660Z,11.27
2022-11-24T08:35:29.222Z,11.15
2022-11-24T08:40:33.236Z,10.99
2022-11-24T08:45:41.163Z,11.04
2022-11-24T08:50:46.560Z,11.06
2022-11-24T08:55:50.010Z,11.07
2022-11-24T09:00:53.514Z,11.00
2022-11-24T09:05:58.325Z,10.99
2022-11-24T09:11:02.425Z,10.97
2022-11-24T09:16:06.661Z,10.96
2022-11-24T09:21:13.668Z,11.01
2022-11-24T09:26:18.987Z,10.97
2022-11-24T09:31:26.995Z,11.03
2022-11-24T09:36:32.596Z,10.99
2022-11-24T09:42:12.752Z,10.93
2022-11-24T09:47:24.711Z,10.83
2022-11-24T09:52:40.423Z,10.91
2022-11-24T09:57:45.255Z,10.86
2022-11-24T10:02:50.460Z,10.96
2022-11-24T10:08:04.947Z,11.02
2022-11-24T10:13:24.771Z,11.04
2022-11-24T10:18:45.297Z,11.09
2022-11-24T10:24:10.279Z,11.03
2022-11-24T10:29:21.342Z,10.92
2022-11-24T10:34:30.004Z,10.94
2022-11-24T10:39:40.828Z,10.83
2022-11-24T10:44:44.888Z,10.68
2022-11-24T10:49:56.775Z,10.67
2022-11-24T10:55:04.235Z,10.48
2022-11-24T11:00:34.414Z,10.49
2022-11-24T11:05:43.021Z,10.44
2022-11-24T11:10:49.976Z,10.53
2022-11-24T11:15:53.977Z,10.53
2022-11-24T11:21:01.776Z,10.48
2022-11-24T11:26:33.829Z,10.45
2022-11-24T11:31:37.954Z,10.47
2022-11-24T11:36:45.132Z,10.45
2022-11-24T11:41:53.109Z,10.40
2022-11-24T11:46:59.842Z,10.37
2022-11-24T11:52:22.886Z,10.56
2022-11-24T11:57:36.439Z,10.49
2022-11-24T12:03:00.932Z,10.43
2022-11-24T12:08:21.507Z,10.12
2022-11-24T12:13:50.245Z,10.02
2022-11-24T12:19:06.287Z,10.13
2022-11-24T12:24:15.371Z,9.93
2022-11-24T12:29:45.348Z,9.75
2022-11-24T12:34:56.623Z,9.85
2022-11-24T12:40:06.121Z,9.79
2022-11-24T12:45:17.667Z,9.90
2022-11-24T12:50:25.230Z,9.72
2022-11-24T12:55:30.202Z,9.72
2022-11-24T13:00:42.224Z,9.79
2022-11-24T13:05:52.514Z,9.89
2022-11-24T13:10:57.623Z,9.93
2022-11-24T13:22:16.471Z,9.49
2022-11-24T13:27:41.399Z,9.31
2022-11-24T13:33:03.414Z,9.08
2022-11-24T13:38:42.762Z,9.04
2022-11-24T13:44:20.772Z,8.84
2022-11-24T13:49:26.024Z,8.83
2022-11-24T13:54:30.330Z,8.69
2022-11-24T13:59:36.507Z,8.64
2022-11-24T14:04:45.809Z,8.43
2022-11-24T14:09:52.307Z,8.37
2022-11-24T14:15:22.963Z,8.35
2022-11-24T14:20:29.442Z,8.24
2022-11-24T14:25:35.307Z,8.09
2022-11-24T14:30:38.760Z,8.15
2022-11-24T14:35:46.844Z,8.20
2022-11-24T14:40:52.582Z,8.18
2022-11-24T14:45:58.483Z,8.23
2022-11-24T14:51:16.327Z,8.10
2022-11-24T14:56:28.441Z,8.23
2022-11-24T15:01:34.630Z,8.28
2022-11-24T15:06:40.766Z,8.25
2022-11-24T15:11:44.382Z,8.21
2022-11-24T15:16:47.905Z,8.23
2022-11-24T15:21:52.968Z,8.24
2022-11-24T15:27:02.710Z,8.33
2022-11-24T15:32:15.069Z,8.33
2022-11-24T15:37:19.833Z,8.42
2022-11-24T15:42:23.257Z,8.48
2022-11-24T15:47:26.725Z,8.41
2022-11-24T15:52:31.983Z,8.41
2022-11-24T15:57:35.734Z,8.44
2022-11-24T16:02:39.187Z,8.49
2022-11-24T16:07:44.213Z,8.46
2022-11-24T16:12:47.749Z,8.47
2022-11-24T16:17:51.196Z,8.41
2022-11-24T16:22:56.007Z,8.47
2022-11-24T16:27:59.900Z,8.45
2022-11-24T16:33:05.783Z,8.31
2022-11-24T16:38:16.388Z,8.17
2022-11-24T16:43:20.076Z,8.04
2022-11-24T16:48:23.482Z,8.03
2022-11-24T16:53:28.206Z,7.68
2022-11-24T16:58:31.580Z,7.59
2022-11-24T17:03:37.285Z,7.23
2022-11-24T17:08:42.871Z,7.26
2022-11-24T17:13:47.501Z,7.17
2022-11-24T17:18:51.898Z,7.11
2022-11-24T17:23:57.405Z,7.08
2022-11-24T17:29:00.987Z,7.01
2022-11-24T17:34:06.183Z,6.96
2022-11-24T17:39:11.442Z,6.81
2022-11-24T17:44:14.848Z,6.68
2022-11-24T17:49:18.566Z,6.66
2022-11-24T17:59:46.740Z,6.60
2022-11-24T18:04:50.300Z,6.44
2022-11-24T18:09:55.094Z,6.53
2022-11-24T18:14:58.516Z,6.46
2022-11-24T18:20:01.890Z,6.43
2022-11-24T18:25:09.224Z,6.29
2022-11-24T18:30:12.897Z,6.22
2022-11-24T18:35:16.384Z,6.26
2022-11-24T18:40:21.469Z,6.27
2022-11-24T18:45:24.948Z,6.25
2022-11-24T18:50:28.498Z,6.17
2022-11-24T18:55:33.343Z,6.13
2022-11-24T19:00:37.082Z,6.16
2022-11-24T19:05:41.358Z,6.12
2022-11-24T19:10:46.452Z,6.05
2022-11-24T19:15:49.909Z,5.95
2022-11-24T19:20:53.378Z,5.94
2022-11-24T19:26:01.201Z,6.03
2022-11-24T19:31:06.724Z,5.96
2022-11-24T19:36:13.493Z,5.90
2022-11-24T19:41:19.627Z,5.89
2022-11-24T19:46:26.288Z,5.92
2022-11-24T19:51:32.400Z,5.78
2022-11-24T19:56:38.273Z,5.75
2022-11-24T20:01:42.747Z,5.64
2022-11-24T20:06:47.972Z,5.58
2022-11-24T20:11:52.862Z,5.60
2022-11-24T20:16:56.784Z,5.56
2022-11-24T20:22:00.336Z,5.57
2022-11-24T20:27:05.305Z,5.57
2022-11-24T20:32:08.738Z,5.67
2022-11-24T20:37:13.752Z,5.71
2022-11-24T20:42:18.555Z,5.59
2022-11-24T20:47:21.985Z,5.59
2022-11-24T20:52:25.429Z,5.63
2022-11-24T20:57:30.637Z,5.57
2022-11-24T21:02:34.120Z,5.63
2022-11-24T21:07:37.571Z,5.61
2022-11-24T21:12:42.361Z,5.62
2022-11-24T21:17:45.764Z,5.60
2022-11-24T21:22:49.097Z,5.66
2022-11-24T21:27:53.856Z,5.53
2022-11-24T21:32:57.261Z,5.56
2022-11-24T21:38:00.625Z,5.47
2022-11-24T21:43:05.516Z,5.40
2022-11-24T21:48:08.917Z,5.41
2022-11-24T21:53:12.237Z,5.45
2022-11-24T21:58:17.041Z,5.48
2022-11-24T22:03:21.090Z,5.35
2022-11-24T22:08:25.142Z,5.27
2022-11-24T22:13:30.054Z,5.23
2022-11-24T22:18:34.765Z,5.19
2022-11-24T22:23:38.204Z,5.16
2022-11-24T22:28:43.810Z,5.20
2022-11-24T22:33:47.638Z,5.05
2022-11-24T22:38:55.118Z,5.07
2022-11-24T22:43:59.865Z,5.08
2022-11-24T22:49:03.518Z,5.04
2022-11-24T22:54:07.466Z,4.98
2022-11-24T22:59:12.256Z,4.93
2022-11-24T23:04:15.888Z,4.88
2022-11-24T23:09:19.325Z,4.87
2022-11-24T23:14:24.135Z,4.87
2022-11-24T23:19:27.681Z,4.79
2022-11-24T23:24:31.209Z,4.78
2022-11-24T23:29:36.017Z,4.79
2022-11-24T23:34:39.378Z,4.82
2022-11-24T23:39:42.811Z,4.79
2022-11-24T23:44:47.602Z,4.74
2022-11-24T23:49:51.026Z,4.74
2022-11-24T23:54:54.496Z,4.69
2022-11-24T23:59:59.295Z,4.63
